sensor_id;sensor_type;location;lat;lon;timestamp;P1;durP1;ratioP1;P2;durP2;ratioP2
13816;SDS011;6979;52.116;5.286;2023-02-28T00:00:06;3.47;;;2.70;;
13816;SDS011;6979;52.116;5.286;2023-02-28T00:02:36;4.77;;;2.93;;
13816;SDS011;6979;52.116;5.286;2023-02-28T00:05:04;4.00;;;2.77;;
13816;SDS011;6979;52.116;5.286;2023-02-28T00:07:32;2.77;;;2.57;;
13816;SDS011;6979;52.116;5.286;2023-02-28T00:10:01;4.17;;;2.60;;
13816;SDS011;6979;52.116;5.286;2023-02-28T00:12:29;3.37;;;3.00;;
13816;SDS011;6979;52.116;5.286;2023-02-28T00:14:57;3.73;;;2.57;;
13816;SDS011;6979;52.116;5.286;2023-02-28T00:17:24;4.30;;;2.73;;
13816;SDS011;6979;52.116;5.286;2023-02-28T00:19:52;3.27;;;2.80;;
13816;SDS011;6979;52.116;5.286;2023-02-28T00:22:22;3.03;;;2.40;;
13816;SDS011;6979;52.116;5.286;2023-02-28T00:24:49;3.83;;;3.00;;
13816;SDS011;6979;52.116;5.286;2023-02-28T00:27:15;2.73;;;2.53;;
13816;SDS011;6979;52.116;5.286;2023-02-28T00:29:42;3.57;;;2.87;;
13816;SDS011;6979;52.116;5.286;2023-02-28T00:32:09;2.53;;;2.23;;
13816;SDS011;6979;52.116;5.286;2023-02-28T00:34:37;3.37;;;2.60;;
13816;SDS011;6979;52.116;5.286;2023-02-28T00:37:09;4.13;;;2.80;;
13816;SDS011;6979;52.116;5.286;2023-02-28T00:39:37;3.47;;;2.50;;
13816;SDS011;6979;52.116;5.286;2023-02-28T00:42:05;2.70;;;2.50;;
13816;SDS011;6979;52.116;5.286;2023-02-28T00:44:34;3.27;;;2.97;;
13816;SDS011;6979;52.116;5.286;2023-02-28T00:47:01;3.90;;;2.90;;
13816;SDS011;6979;52.116;5.286;2023-02-28T00:49:28;3.20;;;2.87;;
13816;SDS011;6979;52.116;5.286;2023-02-28T00:51:55;2.80;;;2.33;;
13816;SDS011;6979;52.116;5.286;2023-02-28T00:54:23;3.77;;;2.40;;
13816;SDS011;6979;52.116;5.286;2023-02-28T00:56:50;3.37;;;2.50;;
13816;SDS011;6979;52.116;5.286;2023-02-28T00:59:17;2.67;;;2.40;;
13816;SDS011;6979;52.116;5.286;2023-02-28T01:01:45;4.23;;;3.00;;
13816;SDS011;6979;52.116;5.286;2023-02-28T01:04:12;3.00;;;2.70;;
13816;SDS011;6979;52.116;5.286;2023-02-28T01:06:39;3.27;;;2.93;;
13816;SDS011;6979;52.116;5.286;2023-02-28T01:09:09;2.13;;;1.97;;
13816;SDS011;6979;52.116;5.286;2023-02-28T01:11:38;2.50;;;2.30;;
13816;SDS011;6979;52.116;5.286;2023-02-28T01:14:06;2.67;;;2.30;;
13816;SDS011;6979;52.116;5.286;2023-02-28T01:16:36;5.10;;;2.57;;
13816;SDS011;6979;52.116;5.286;2023-02-28T01:19:02;3.37;;;2.80;;
13816;SDS011;6979;52.116;5.286;2023-02-28T01:21:30;4.00;;;2.23;;
13816;SDS011;6979;52.116;5.286;2023-02-28T01:23:57;3.60;;;2.90;;
13816;SDS011;6979;52.116;5.286;2023-02-28T01:26:24;2.50;;;2.30;;
13816;SDS011;6979;52.116;5.286;2023-02-28T01:28:52;4.80;;;2.63;;
13816;SDS011;6979;52.116;5.286;2023-02-28T01:31:20;3.73;;;2.07;;
13816;SDS011;6979;52.116;5.286;2023-02-28T01:33:48;2.43;;;2.23;;
13816;SDS011;6979;52.116;5.286;2023-02-28T01:36:15;5.63;;;2.73;;
13816;SDS011;6979;52.116;5.286;2023-02-28T01:38:44;4.27;;;2.97;;
13816;SDS011;6979;52.116;5.286;2023-02-28T01:41:14;2.50;;;2.30;;
13816;SDS011;6979;52.116;5.286;2023-02-28T01:44:01;2.63;;;2.43;;
13816;SDS011;6979;52.116;5.286;2023-02-28T01:46:31;3.57;;;2.60;;
13816;SDS011;6979;52.116;5.286;2023-02-28T01:49:00;2.40;;;2.20;;
13816;SDS011;6979;52.116;5.286;2023-02-28T01:51:33;4.80;;;2.40;;
13816;SDS011;6979;52.116;5.286;2023-02-28T01:54:05;2.13;;;2.00;;
13816;SDS011;6979;52.116;5.286;2023-02-28T01:56:41;2.30;;;2.10;;
13816;SDS011;6979;52.116;5.286;2023-02-28T01:59:14;2.90;;;1.97;;
13816;SDS011;6979;52.116;5.286;2023-02-28T02:01:47;2.93;;;2.30;;
13816;SDS011;6979;52.116;5.286;2023-02-28T02:04:14;4.27;;;2.43;;
13816;SDS011;6979;52.116;5.286;2023-02-28T02:06:42;3.53;;;2.43;;
13816;SDS011;6979;52.116;5.286;2023-02-28T02:09:15;3.63;;;2.00;;
13816;SDS011;6979;52.116;5.286;2023-02-28T02:11:42;3.30;;;2.10;;
13816;SDS011;6979;52.116;5.286;2023-02-28T02:14:15;2.97;;;2.40;;
13816;SDS011;6979;52.116;5.286;2023-02-28T02:17:10;4.40;;;2.10;;
13816;SDS011;6979;52.116;5.286;2023-02-28T02:25:52;3.37;;;2.20;;
13816;SDS011;6979;52.116;5.286;2023-02-28T02:34:40;3.50;;;2.93;;
13816;SDS011;6979;52.116;5.286;2023-02-28T02:37:21;3.80;;;2.27;;
13816;SDS011;6979;52.116;5.286;2023-02-28T02:40:00;3.07;;;2.73;;
13816;SDS011;6979;52.116;5.286;2023-02-28T02:42:39;2.03;;;1.93;;
13816;SDS011;6979;52.116;5.286;2023-02-28T02:45:12;2.70;;;2.50;;
13816;SDS011;6979;52.116;5.286;2023-02-28T02:47:43;2.80;;;2.50;;
13816;SDS011;6979;52.116;5.286;2023-02-28T02:50:14;3.40;;;2.13;;
13816;SDS011;6979;52.116;5.286;2023-02-28T02:52:47;2.50;;;2.10;;
13816;SDS011;6979;52.116;5.286;2023-02-28T02:55:17;5.53;;;2.80;;
13816;SDS011;6979;52.116;5.286;2023-02-28T02:57:47;4.53;;;2.53;;
13816;SDS011;6979;52.116;5.286;2023-02-28T03:00:16;2.53;;;2.03;;
13816;SDS011;6979;52.116;5.286;2023-02-28T03:02:46;2.87;;;2.57;;
13816;SDS011;6979;52.116;5.286;2023-02-28T03:05:18;3.37;;;2.10;;
13816;SDS011;6979;52.116;5.286;2023-02-28T03:07:48;2.27;;;2.07;;
13816;SDS011;6979;52.116;5.286;2023-02-28T03:10:32;3.87;;;2.23;;
13816;SDS011;6979;52.116;5.286;2023-02-28T03:13:10;3.00;;;2.33;;
13816;SDS011;6979;52.116;5.286;2023-02-28T03:15:50;2.30;;;2.10;;
13816;SDS011;6979;52.116;5.286;2023-02-28T03:18:26;2.87;;;2.47;;
13816;SDS011;6979;52.116;5.286;2023-02-28T03:21:00;3.60;;;2.07;;
13816;SDS011;6979;52.116;5.286;2023-02-28T03:23:37;2.63;;;1.90;;
13816;SDS011;6979;52.116;5.286;2023-02-28T03:26:11;2.53;;;2.20;;
13816;SDS011;6979;52.116;5.286;2023-02-28T03:28:48;2.30;;;2.10;;
13816;SDS011;6979;52.116;5.286;2023-02-28T03:31:19;2.33;;;2.13;;
13816;SDS011;6979;52.116;5.286;2023-02-28T03:33:54;2.40;;;2.20;;
13816;SDS011;6979;52.116;5.286;2023-02-28T03:36:26;2.40;;;2.20;;
13816;SDS011;6979;52.116;5.286;2023-02-28T03:38:56;1.83;;;1.70;;
13816;SDS011;6979;52.116;5.286;2023-02-28T03:41:29;2.17;;;2.03;;
13816;SDS011;6979;52.116;5.286;2023-02-28T03:44:02;2.60;;;2.40;;
13816;SDS011;6979;52.116;5.286;2023-02-28T03:46:33;2.57;;;2.37;;
13816;SDS011;6979;52.116;5.286;2023-02-28T03:49:06;2.67;;;2.00;;
13816;SDS011;6979;52.116;5.286;2023-02-28T03:51:41;2.47;;;2.27;;
13816;SDS011;6979;52.116;5.286;2023-02-28T03:54:12;2.40;;;2.20;;
13816;SDS011;6979;52.116;5.286;2023-02-28T03:56:44;3.43;;;2.20;;
13816;SDS011;6979;52.116;5.286;2023-02-28T03:59:15;2.20;;;1.90;;
13816;SDS011;6979;52.116;5.286;2023-02-28T04:01:47;2.77;;;2.57;;
13816;SDS011;6979;52.116;5.286;2023-02-28T04:04:16;2.33;;;2.13;;
13816;SDS011;6979;52.116;5.286;2023-02-28T04:06:45;2.17;;;2.00;;
13816;SDS011;6979;52.116;5.286;2023-02-28T04:09:15;2.87;;;2.23;;
13816;SDS011;6979;52.116;5.286;2023-02-28T04:11:42;3.10;;;2.40;;
13816;SDS011;6979;52.116;5.286;2023-02-28T04:14:11;2.50;;;2.30;;
13816;SDS011;6979;52.116;5.286;2023-02-28T04:16:39;3.03;;;2.70;;
13816;SDS011;6979;52.116;5.286;2023-02-28T04:19:08;3.40;;;3.10;;
13816;SDS011;6979;52.116;5.286;2023-02-28T04:21:37;4.47;;;2.37;;
13816;SDS011;6979;52.116;5.286;2023-02-28T04:24:06;3.40;;;3.10;;
13816;SDS011;6979;52.116;5.286;2023-02-28T04:26:39;3.30;;;3.00;;
13816;SDS011;6979;52.116;5.286;2023-02-28T04:29:08;2.53;;;2.33;;
13816;SDS011;6979;52.116;5.286;2023-02-28T04:31:37;2.23;;;2.13;;
13816;SDS011;6979;52.116;5.286;2023-02-28T04:34:05;2.83;;;2.43;;
13816;SDS011;6979;52.116;5.286;2023-02-28T04:36:32;3.10;;;2.50;;
13816;SDS011;6979;52.116;5.286;2023-02-28T04:38:59;2.57;;;2.37;;
13816;SDS011;6979;52.116;5.286;2023-02-28T04:41:28;2.50;;;2.30;;
13816;SDS011;6979;52.116;5.286;2023-02-28T04:43:55;2.30;;;2.10;;
13816;SDS011;6979;52.116;5.286;2023-02-28T04:46:22;2.93;;;2.70;;
13816;SDS011;6979;52.116;5.286;2023-02-28T04:48:49;2.50;;;2.03;;
13816;SDS011;6979;52.116;5.286;2023-02-28T04:51:19;3.50;;;2.47;;
13816;SDS011;6979;52.116;5.286;2023-02-28T04:53:46;2.53;;;2.33;;
13816;SDS011;6979;52.116;5.286;2023-02-28T04:56:14;2.10;;;1.90;;
13816;SDS011;6979;52.116;5.286;2023-02-28T04:58:44;3.97;;;2.10;;
13816;SDS011;6979;52.116;5.286;2023-02-28T05:01:16;2.37;;;2.17;;
13816;SDS011;6979;52.116;5.286;2023-02-28T05:03:45;2.47;;;1.90;;
13816;SDS011;6979;52.116;5.286;2023-02-28T05:06:12;2.30;;;2.00;;
13816;SDS011;6979;52.116;5.286;2023-02-28T05:08:40;2.50;;;2.30;;
13816;SDS011;6979;52.116;5.286;2023-02-28T05:11:15;3.40;;;2.40;;
13816;SDS011;6979;52.116;5.286;2023-02-28T05:13:45;2.07;;;1.93;;
13816;SDS011;6979;52.116;5.286;2023-02-28T05:16:13;2.60;;;2.20;;
13816;SDS011;6979;52.116;5.286;2023-02-28T05:18:40;2.30;;;2.10;;
13816;SDS011;6979;52.116;5.286;2023-02-28T05:21:18;2.30;;;2.10;;
13816;SDS011;6979;52.116;5.286;2023-02-28T05:23:54;3.00;;;2.30;;
13816;SDS011;6979;52.116;5.286;2023-02-28T05:26:22;2.43;;;2.17;;
13816;SDS011;6979;52.116;5.286;2023-02-28T05:28:54;2.20;;;2.10;;
13816;SDS011;6979;52.116;5.286;2023-02-28T05:31:21;3.37;;;1.90;;
13816;SDS011;6979;52.116;5.286;2023-02-28T05:33:48;2.03;;;1.80;;
13816;SDS011;6979;52.116;5.286;2023-02-28T05:36:14;2.63;;;2.43;;
13816;SDS011;6979;52.116;5.286;2023-02-28T05:38:41;2.37;;;2.17;;
13816;SDS011;6979;52.116;5.286;2023-02-28T05:41:08;3.40;;;2.57;;
13816;SDS011;6979;52.116;5.286;2023-02-28T05:43:38;2.60;;;2.40;;
13816;SDS011;6979;52.116;5.286;2023-02-28T05:46:08;2.03;;;1.93;;
13816;SDS011;6979;52.116;5.286;2023-02-28T05:48:36;2.60;;;2.40;;
13816;SDS011;6979;52.116;5.286;2023-02-28T05:51:04;2.13;;;1.93;;
13816;SDS011;6979;52.116;5.286;2023-02-28T05:53:35;2.37;;;2.17;;
13816;SDS011;6979;52.116;5.286;2023-02-28T05:56:02;1.97;;;1.87;;
13816;SDS011;6979;52.116;5.286;2023-02-28T05:58:30;2.53;;;2.33;;
13816;SDS011;6979;52.116;5.286;2023-02-28T06:00:57;2.63;;;2.43;;
13816;SDS011;6979;52.116;5.286;2023-02-28T06:03:26;3.30;;;2.30;;
13816;SDS011;6979;52.116;5.286;2023-02-28T06:05:54;2.70;;;2.47;;
13816;SDS011;6979;52.116;5.286;2023-02-28T06:08:21;2.97;;;2.17;;
13816;SDS011;6979;52.116;5.286;2023-02-28T06:10:48;2.70;;;2.40;;
13816;SDS011;6979;52.116;5.286;2023-02-28T06:13:15;2.27;;;2.17;;
13816;SDS011;6979;52.116;5.286;2023-02-28T06:15:41;3.00;;;2.50;;
13816;SDS011;6979;52.116;5.286;2023-02-28T06:18:09;3.27;;;2.47;;
13816;SDS011;6979;52.116;5.286;2023-02-28T06:20:37;3.90;;;2.57;;
13816;SDS011;6979;52.116;5.286;2023-02-28T06:23:04;2.60;;;2.40;;
13816;SDS011;6979;52.116;5.286;2023-02-28T06:25:30;2.60;;;2.40;;
13816;SDS011;6979;52.116;5.286;2023-02-28T06:27:57;2.67;;;2.47;;
13816;SDS011;6979;52.116;5.286;2023-02-28T06:30:24;2.20;;;2.10;;
13816;SDS011;6979;52.116;5.286;2023-02-28T06:32:53;2.53;;;2.33;;
13816;SDS011;6979;52.116;5.286;2023-02-28T06:35:21;2.63;;;2.43;;
13816;SDS011;6979;52.116;5.286;2023-02-28T06:37:50;1.90;;;1.80;;
13816;SDS011;6979;52.116;5.286;2023-02-28T06:40:17;2.77;;;2.57;;
13816;SDS011;6979;52.116;5.286;2023-02-28T06:42:44;2.80;;;2.57;;
13816;SDS011;6979;52.116;5.286;2023-02-28T06:45:14;2.83;;;2.57;;
13816;SDS011;6979;52.116;5.286;2023-02-28T06:47:40;2.30;;;2.10;;
13816;SDS011;6979;52.116;5.286;2023-02-28T06:50:09;2.53;;;2.13;;
13816;SDS011;6979;52.116;5.286;2023-02-28T06:52:38;2.23;;;2.03;;
13816;SDS011;6979;52.116;5.286;2023-02-28T06:55:07;2.60;;;2.40;;
13816;SDS011;6979;52.116;5.286;2023-02-28T06:57:35;3.03;;;2.73;;
13816;SDS011;6979;52.116;5.286;2023-02-28T07:00:04;2.13;;;2.03;;
13816;SDS011;6979;52.116;5.286;2023-02-28T07:02:32;2.67;;;2.50;;
13816;SDS011;6979;52.116;5.286;2023-02-28T07:05:00;2.80;;;2.53;;
13816;SDS011;6979;52.116;5.286;2023-02-28T07:07:26;2.80;;;2.60;;
13816;SDS011;6979;52.116;5.286;2023-02-28T07:09:53;2.93;;;2.73;;
13816;SDS011;6979;52.116;5.286;2023-02-28T07:12:21;2.97;;;2.60;;
13816;SDS011;6979;52.116;5.286;2023-02-28T07:14:48;3.20;;;2.90;;
13816;SDS011;6979;52.116;5.286;2023-02-28T07:17:19;3.30;;;2.77;;
13816;SDS011;6979;52.116;5.286;2023-02-28T07:19:46;2.93;;;2.73;;
13816;SDS011;6979;52.116;5.286;2023-02-28T07:22:13;3.57;;;2.50;;
13816;SDS011;6979;52.116;5.286;2023-02-28T07:24:40;3.03;;;2.73;;
13816;SDS011;6979;52.116;5.286;2023-02-28T07:27:07;3.27;;;2.60;;
13816;SDS011;6979;52.116;5.286;2023-02-28T07:29:35;3.07;;;2.83;;
13816;SDS011;6979;52.116;5.286;2023-02-28T07:32:02;3.40;;;3.03;;
13816;SDS011;6979;52.116;5.286;2023-02-28T07:34:29;2.57;;;2.40;;
13816;SDS011;6979;52.116;5.286;2023-02-28T07:36:56;2.50;;;2.30;;
13816;SDS011;6979;52.116;5.286;2023-02-28T07:39:23;2.90;;;2.57;;
13816;SDS011;6979;52.116;5.286;2023-02-28T07:41:50;3.53;;;2.80;;
13816;SDS011;6979;52.116;5.286;2023-02-28T07:44:16;2.70;;;2.50;;
13816;SDS011;6979;52.116;5.286;2023-02-28T07:46:45;3.10;;;2.20;;
13816;SDS011;6979;52.116;5.286;2023-02-28T07:49:12;2.70;;;2.50;;
13816;SDS011;6979;52.116;5.286;2023-02-28T07:51:38;3.37;;;2.60;;
13816;SDS011;6979;52.116;5.286;2023-02-28T07:54:05;2.57;;;2.17;;
13816;SDS011;6979;52.116;5.286;2023-02-28T07:56:32;2.37;;;2.23;;
13816;SDS011;6979;52.116;5.286;2023-02-28T07:58:59;2.30;;;2.20;;
13816;SDS011;6979;52.116;5.286;2023-02-28T08:01:27;2.87;;;2.27;;
13816;SDS011;6979;52.116;5.286;2023-02-28T08:03:58;2.97;;;2.77;;
13816;SDS011;6979;52.116;5.286;2023-02-28T08:06:25;3.70;;;2.80;;
13816;SDS011;6979;52.116;5.286;2023-02-28T08:08:52;2.50;;;2.40;;
13816;SDS011;6979;52.116;5.286;2023-02-28T08:11:21;2.43;;;2.30;;
13816;SDS011;6979;52.116;5.286;2023-02-28T08:13:48;3.17;;;2.87;;
13816;SDS011;6979;52.116;5.286;2023-02-28T08:16:15;2.83;;;2.63;;
13816;SDS011;6979;52.116;5.286;2023-02-28T08:18:46;2.77;;;2.53;;
13816;SDS011;6979;52.116;5.286;2023-02-28T08:21:14;3.10;;;2.90;;
13816;SDS011;6979;52.116;5.286;2023-02-28T08:23:41;4.20;;;3.00;;
13816;SDS011;6979;52.116;5.286;2023-02-28T08:26:08;3.77;;;3.17;;
13816;SDS011;6979;52.116;5.286;2023-02-28T08:28:35;3.20;;;2.90;;
13816;SDS011;6979;52.116;5.286;2023-02-28T08:31:06;3.20;;;3.00;;
13816;SDS011;6979;52.116;5.286;2023-02-28T08:33:34;3.73;;;3.43;;
13816;SDS011;6979;52.116;5.286;2023-02-28T08:36:01;2.93;;;2.73;;
13816;SDS011;6979;52.116;5.286;2023-02-28T08:38:35;3.50;;;2.90;;
13816;SDS011;6979;52.116;5.286;2023-02-28T08:41:06;4.20;;;2.57;;
13816;SDS011;6979;52.116;5.286;2023-02-28T08:43:35;3.30;;;3.00;;
13816;SDS011;6979;52.116;5.286;2023-02-28T08:46:02;3.40;;;2.80;;
13816;SDS011;6979;52.116;5.286;2023-02-28T08:48:30;3.73;;;3.43;;
13816;SDS011;6979;52.116;5.286;2023-02-28T08:51:00;5.20;;;2.83;;
13816;SDS011;6979;52.116;5.286;2023-02-28T08:53:28;3.00;;;2.80;;
13816;SDS011;6979;52.116;5.286;2023-02-28T08:55:57;3.10;;;2.80;;
13816;SDS011;6979;52.116;5.286;2023-02-28T08:58:25;2.67;;;2.53;;
13816;SDS011;6979;52.116;5.286;2023-02-28T09:00:52;2.27;;;2.07;;
13816;SDS011;6979;52.116;5.286;2023-02-28T09:03:22;3.00;;;2.80;;
13816;SDS011;6979;52.116;5.286;2023-02-28T09:05:55;2.83;;;2.63;;
13816;SDS011;6979;52.116;5.286;2023-02-28T09:08:23;2.77;;;2.57;;
13816;SDS011;6979;52.116;5.286;2023-02-28T09:10:51;2.90;;;2.70;;
13816;SDS011;6979;52.116;5.286;2023-02-28T09:13:20;3.03;;;2.83;;
13816;SDS011;6979;52.116;5.286;2023-02-28T09:15:47;2.90;;;2.70;;
13816;SDS011;6979;52.116;5.286;2023-02-28T09:18:14;2.57;;;2.30;;
13816;SDS011;6979;52.116;5.286;2023-02-28T09:20:42;3.67;;;2.27;;
13816;SDS011;6979;52.116;5.286;2023-02-28T09:23:10;2.43;;;2.33;;
13816;SDS011;6979;52.116;5.286;2023-02-28T09:25:44;2.50;;;2.30;;
13816;SDS011;6979;52.116;5.286;2023-02-28T09:28:12;2.60;;;2.40;;
13816;SDS011;6979;52.116;5.286;2023-02-28T09:30:42;3.03;;;2.73;;
13816;SDS011;6979;52.116;5.286;2023-02-28T09:33:11;2.43;;;2.33;;
13816;SDS011;6979;52.116;5.286;2023-02-28T09:35:38;2.73;;;2.53;;
13816;SDS011;6979;52.116;5.286;2023-02-28T09:38:08;2.83;;;2.53;;
13816;SDS011;6979;52.116;5.286;2023-02-28T09:40:36;2.67;;;2.47;;
13816;SDS011;6979;52.116;5.286;2023-02-28T09:43:05;2.73;;;2.53;;
13816;SDS011;6979;52.116;5.286;2023-02-28T09:45:38;2.30;;;2.20;;
13816;SDS011;6979;52.116;5.286;2023-02-28T09:48:10;2.10;;;2.00;;
13816;SDS011;6979;52.116;5.286;2023-02-28T09:50:45;3.10;;;2.40;;
13816;SDS011;6979;52.116;5.286;2023-02-28T09:53:15;2.57;;;2.30;;
13816;SDS011;6979;52.116;5.286;2023-02-28T09:55:48;1.87;;;1.63;;
13816;SDS011;6979;52.116;5.286;2023-02-28T09:58:18;1.90;;;1.80;;
13816;SDS011;6979;52.116;5.286;2023-02-28T10:00:54;1.60;;;1.50;;
13816;SDS011;6979;52.116;5.286;2023-02-28T10:03:29;2.10;;;1.50;;
13816;SDS011;6979;52.116;5.286;2023-02-28T10:06:02;2.07;;;1.60;;
13816;SDS011;6979;52.116;5.286;2023-02-28T10:08:38;1.73;;;1.60;;
13816;SDS011;6979;52.116;5.286;2023-02-28T10:11:12;1.97;;;1.87;;
13816;SDS011;6979;52.116;5.286;2023-02-28T10:13:46;1.60;;;1.50;;
13816;SDS011;6979;52.116;5.286;2023-02-28T10:16:25;1.53;;;1.43;;
13816;SDS011;6979;52.116;5.286;2023-02-28T10:18:57;1.83;;;1.73;;
13816;SDS011;6979;52.116;5.286;2023-02-28T10:21:29;2.23;;;2.07;;
13816;SDS011;6979;52.116;5.286;2023-02-28T10:24:02;1.50;;;1.40;;
13816;SDS011;6979;52.116;5.286;2023-02-28T10:26:45;1.60;;;1.40;;
13816;SDS011;6979;52.116;5.286;2023-02-28T10:29:14;1.40;;;1.30;;
13816;SDS011;6979;52.116;5.286;2023-02-28T10:31:43;1.73;;;1.63;;
13816;SDS011;6979;52.116;5.286;2023-02-28T10:34:12;1.60;;;1.50;;
13816;SDS011;6979;52.116;5.286;2023-02-28T10:36:42;1.60;;;1.50;;
13816;SDS011;6979;52.116;5.286;2023-02-28T10:42:03;1.87;;;1.47;;
13816;SDS011;6979;52.116;5.286;2023-02-28T10:44:31;1.60;;;1.37;;
13816;SDS011;6979;52.116;5.286;2023-02-28T10:46:58;1.70;;;1.60;;
13816;SDS011;6979;52.116;5.286;2023-02-28T10:49:27;1.63;;;1.53;;
13816;SDS011;6979;52.116;5.286;2023-02-28T10:51:56;1.73;;;1.63;;
13816;SDS011;6979;52.116;5.286;2023-02-28T10:54:27;1.23;;;1.23;;
13816;SDS011;6979;52.116;5.286;2023-02-28T10:57:15;1.70;;;1.60;;
13816;SDS011;6979;52.116;5.286;2023-02-28T10:59:43;1.57;;;1.50;;
13816;SDS011;6979;52.116;5.286;2023-02-28T11:02:29;1.43;;;1.33;;
13816;SDS011;6979;52.116;5.286;2023-02-28T11:04:59;1.10;;;1.10;;
13816;SDS011;6979;52.116;5.286;2023-02-28T11:07:26;1.70;;;1.60;;
13816;SDS011;6979;52.116;5.286;2023-02-28T11:09:54;1.40;;;1.30;;
13816;SDS011;6979;52.116;5.286;2023-02-28T11:12:23;1.57;;;1.33;;
13816;SDS011;6979;52.116;5.286;2023-02-28T11:14:54;1.30;;;1.30;;
13816;SDS011;6979;52.116;5.286;2023-02-28T11:17:24;1.60;;;1.50;;
13816;SDS011;6979;52.116;5.286;2023-02-28T11:19:53;1.20;;;1.20;;
13816;SDS011;6979;52.116;5.286;2023-02-28T11:22:24;1.40;;;1.30;;
13816;SDS011;6979;52.116;5.286;2023-02-28T11:24:55;1.30;;;1.20;;
13816;SDS011;6979;52.116;5.286;2023-02-28T11:27:26;1.37;;;1.30;;
13816;SDS011;6979;52.116;5.286;2023-02-28T11:32:55;1.67;;;1.40;;
13816;SDS011;6979;52.116;5.286;2023-02-28T11:35:23;1.30;;;1.30;;
13816;SDS011;6979;52.116;5.286;2023-02-28T11:37:54;1.20;;;1.20;;
13816;SDS011;6979;52.116;5.286;2023-02-28T11:40:23;1.57;;;1.47;;
13816;SDS011;6979;52.116;5.286;2023-02-28T11:42:57;1.50;;;1.40;;
13816;SDS011;6979;52.116;5.286;2023-02-28T11:45:47;1.77;;;1.67;;
13816;SDS011;6979;52.116;5.286;2023-02-28T11:48:26;1.30;;;1.20;;
13816;SDS011;6979;52.116;5.286;2023-02-28T11:51:03;1.20;;;1.20;;
13816;SDS011;6979;52.116;5.286;2023-02-28T11:53:44;1.40;;;1.30;;
13816;SDS011;6979;52.116;5.286;2023-02-28T11:56:32;1.13;;;1.13;;
13816;SDS011;6979;52.116;5.286;2023-02-28T11:59:11;1.13;;;1.13;;
13816;SDS011;6979;52.116;5.286;2023-02-28T12:02:03;1.07;;;1.07;;
13816;SDS011;6979;52.116;5.286;2023-02-28T12:04:47;1.70;;;1.60;;
13816;SDS011;6979;52.116;5.286;2023-02-28T12:07:26;1.60;;;1.50;;
13816;SDS011;6979;52.116;5.286;2023-02-28T12:10:03;1.37;;;1.27;;
13816;SDS011;6979;52.116;5.286;2023-02-28T12:12:38;1.60;;;1.50;;
13816;SDS011;6979;52.116;5.286;2023-02-28T12:15:16;1.27;;;1.23;;
13816;SDS011;6979;52.116;5.286;2023-02-28T12:18:07;1.07;;;1.07;;
13816;SDS011;6979;52.116;5.286;2023-02-28T12:20:57;1.20;;;1.20;;
13816;SDS011;6979;52.116;5.286;2023-02-28T12:23:46;0.87;;;0.87;;
13816;SDS011;6979;52.116;5.286;2023-02-28T12:26:36;1.50;;;1.50;;
13816;SDS011;6979;52.116;5.286;2023-02-28T12:29:09;1.70;;;1.60;;
13816;SDS011;6979;52.116;5.286;2023-02-28T12:31:45;1.37;;;1.37;;
13816;SDS011;6979;52.116;5.286;2023-02-28T12:34:19;1.40;;;1.40;;
13816;SDS011;6979;52.116;5.286;2023-02-28T12:36:48;1.33;;;1.33;;
13816;SDS011;6979;52.116;5.286;2023-02-28T12:39:18;1.23;;;1.23;;
13816;SDS011;6979;52.116;5.286;2023-02-28T12:41:53;1.50;;;1.40;;
13816;SDS011;6979;52.116;5.286;2023-02-28T12:44:26;1.30;;;1.30;;
13816;SDS011;6979;52.116;5.286;2023-02-28T12:46:59;1.10;;;1.10;;
13816;SDS011;6979;52.116;5.286;2023-02-28T12:49:31;1.33;;;1.30;;
13816;SDS011;6979;52.116;5.286;2023-02-28T12:52:00;1.30;;;1.30;;
13816;SDS011;6979;52.116;5.286;2023-02-28T12:54:29;1.40;;;1.30;;
13816;SDS011;6979;52.116;5.286;2023-02-28T12:57:06;1.23;;;1.13;;
13816;SDS011;6979;52.116;5.286;2023-02-28T12:59:37;1.47;;;1.33;;
13816;SDS011;6979;52.116;5.286;2023-02-28T13:05:14;1.40;;;1.40;;
13816;SDS011;6979;52.116;5.286;2023-02-28T13:11:22;1.70;;;1.50;;
13816;SDS011;6979;52.116;5.286;2023-02-28T13:14:04;1.73;;;1.63;;
13816;SDS011;6979;52.116;5.286;2023-02-28T13:16:52;1.63;;;1.53;;
13816;SDS011;6979;52.116;5.286;2023-02-28T13:19:23;1.20;;;1.20;;
13816;SDS011;6979;52.116;5.286;2023-02-28T13:21:52;1.57;;;1.47;;
13816;SDS011;6979;52.116;5.286;2023-02-28T13:24:39;1.40;;;1.30;;
13816;SDS011;6979;52.116;5.286;2023-02-28T13:33:20;1.27;;;1.27;;
13816;SDS011;6979;52.116;5.286;2023-02-28T13:36:00;1.20;;;1.20;;
13816;SDS011;6979;52.116;5.286;2023-02-28T13:38:41;1.67;;;1.57;;
13816;SDS011;6979;52.116;5.286;2023-02-28T13:44:11;1.37;;;1.30;;
13816;SDS011;6979;52.116;5.286;2023-02-28T13:49:45;1.17;;;1.17;;
13816;SDS011;6979;52.116;5.286;2023-02-28T13:52:12;1.70;;;1.60;;
13816;SDS011;6979;52.116;5.286;2023-02-28T13:54:51;1.30;;;1.20;;
13816;SDS011;6979;52.116;5.286;2023-02-28T13:57:31;1.70;;;1.60;;
13816;SDS011;6979;52.116;5.286;2023-02-28T14:00:15;1.93;;;1.47;;
13816;SDS011;6979;52.116;5.286;2023-02-28T14:03:04;1.43;;;1.33;;
13816;SDS011;6979;52.116;5.286;2023-02-28T14:05:46;1.97;;;1.73;;
13816;SDS011;6979;52.116;5.286;2023-02-28T14:08:14;2.00;;;1.40;;
13816;SDS011;6979;52.116;5.286;2023-02-28T14:10:46;1.47;;;1.40;;
13816;SDS011;6979;52.116;5.286;2023-02-28T14:16:09;1.30;;;1.30;;
13816;SDS011;6979;52.116;5.286;2023-02-28T14:18:38;1.37;;;1.37;;
13816;SDS011;6979;52.116;5.286;2023-02-28T14:21:11;1.47;;;1.33;;
13816;SDS011;6979;52.116;5.286;2023-02-28T14:23:49;1.80;;;1.70;;
13816;SDS011;6979;52.116;5.286;2023-02-28T14:26:57;1.70;;;1.60;;
13816;SDS011;6979;52.116;5.286;2023-02-28T14:29:47;1.83;;;1.73;;
13816;SDS011;6979;52.116;5.286;2023-02-28T14:32:49;1.50;;;1.40;;
13816;SDS011;6979;52.116;5.286;2023-02-28T14:35:29;1.80;;;1.70;;
13816;SDS011;6979;52.116;5.286;2023-02-28T14:38:13;1.60;;;1.50;;
13816;SDS011;6979;52.116;5.286;2023-02-28T14:40:43;1.47;;;1.47;;
13816;SDS011;6979;52.116;5.286;2023-02-28T14:43:19;1.70;;;1.60;;
13816;SDS011;6979;52.116;5.286;2023-02-28T14:45:49;1.37;;;1.37;;
13816;SDS011;6979;52.116;5.286;2023-02-28T14:48:18;1.97;;;1.87;;
13816;SDS011;6979;52.116;5.286;2023-02-28T14:50:48;1.63;;;1.60;;
13816;SDS011;6979;52.116;5.286;2023-02-28T14:53:19;2.10;;;2.00;;
13816;SDS011;6979;52.116;5.286;2023-02-28T14:55:47;1.57;;;1.47;;
13816;SDS011;6979;52.116;5.286;2023-02-28T14:58:22;1.83;;;1.73;;
13816;SDS011;6979;52.116;5.286;2023-02-28T15:00:52;1.80;;;1.70;;
13816;SDS011;6979;52.116;5.286;2023-02-28T15:03:20;1.97;;;1.87;;
13816;SDS011;6979;52.116;5.286;2023-02-28T15:05:52;1.97;;;1.87;;
13816;SDS011;6979;52.116;5.286;2023-02-28T15:08:22;2.00;;;1.90;;
13816;SDS011;6979;52.116;5.286;2023-02-28T15:10:55;1.60;;;1.50;;
13816;SDS011;6979;52.116;5.286;2023-02-28T15:13:23;1.97;;;1.70;;
13816;SDS011;6979;52.116;5.286;2023-02-28T15:16:00;1.40;;;1.40;;
13816;SDS011;6979;52.116;5.286;2023-02-28T15:18:31;1.67;;;1.57;;
13816;SDS011;6979;52.116;5.286;2023-02-28T15:21:06;1.80;;;1.70;;
13816;SDS011;6979;52.116;5.286;2023-02-28T15:23:38;1.50;;;1.40;;
13816;SDS011;6979;52.116;5.286;2023-02-28T15:26:07;1.43;;;1.33;;
13816;SDS011;6979;52.116;5.286;2023-02-28T15:28:36;1.40;;;1.30;;
13816;SDS011;6979;52.116;5.286;2023-02-28T15:31:03;1.73;;;1.67;;
13816;SDS011;6979;52.116;5.286;2023-02-28T15:33:52;1.40;;;1.40;;
13816;SDS011;6979;52.116;5.286;2023-02-28T15:36:20;1.00;;;1.00;;
13816;SDS011;6979;52.116;5.286;2023-02-28T15:38:54;1.67;;;1.57;;
13816;SDS011;6979;52.116;5.286;2023-02-28T15:41:24;1.70;;;1.60;;
13816;SDS011;6979;52.116;5.286;2023-02-28T15:46:56;1.50;;;1.40;;
13816;SDS011;6979;52.116;5.286;2023-02-28T15:49:26;1.80;;;1.70;;
13816;SDS011;6979;52.116;5.286;2023-02-28T15:51:56;2.23;;;1.43;;
13816;SDS011;6979;52.116;5.286;2023-02-28T15:54:28;1.30;;;1.30;;
13816;SDS011;6979;52.116;5.286;2023-02-28T15:57:01;1.80;;;1.70;;
13816;SDS011;6979;52.116;5.286;2023-02-28T15:59:31;2.40;;;2.20;;
13816;SDS011;6979;52.116;5.286;2023-02-28T16:02:03;2.10;;;1.90;;
13816;SDS011;6979;52.116;5.286;2023-02-28T16:04:53;1.50;;;1.40;;
13816;SDS011;6979;52.116;5.286;2023-02-28T16:07:23;1.70;;;1.60;;